Time;durP1;ratioP1;P1;durP2;ratioP2;P2;SDS_P1;SDS_P2;PMS_P1;PMS_P2;Temp;Humidity;BMP_temperature;BMP_pressure;BME280_temperature;BME280_humidity;BME280_pressure;Samples;Min_cycle;Max_cycle;Signal;HPM_P1;HPM_P2
2022/09/18 00:02:11;;;;;;;11.00;6.22;;;11.30;99.90;;;;;;5031229;28;20088;-88
2022/09/18 00:04:37;;;;;;;11.75;7.15;;;11.20;99.90;;;;;;5031215;28;20508;-86
2022/09/18 00:07:02;;;;;;;9.10;6.63;;;11.20;99.90;;;;;;5014499;28;20424;-84
2022/09/18 00:09:28;;;;;;;13.95;7.00;;;11.20;99.90;;;;;;5041806;28;20033;-84
2022/09/18 00:11:55;;;;;;;13.15;8.23;;;11.20;99.90;;;;;;5038763;28;20029;-84
2022/09/18 00:14:22;;;;;;;10.20;7.45;;;11.20;99.90;;;;;;5030935;28;20036;-85
2022/09/18 00:16:49;;;;;;;16.25;8.80;;;11.10;99.90;;;;;;5013919;28;20064;-85
2022/09/18 00:19:16;;;;;;;10.98;8.00;;;11.20;99.90;;;;;;5030890;28;20065;-86
2022/09/18 00:21:44;;;;;;;10.93;7.28;;;11.20;99.90;;;;;;5038262;28;20021;-85
2022/09/18 00:24:10;;;;;;;10.30;6.88;;;11.10;99.90;;;;;;5047626;28;20156;-86
2022/09/18 00:26:38;;;;;;;10.20;7.18;;;11.20;99.90;;;;;;5031112;28;20431;-85
2022/09/18 00:29:04;;;;;;;11.88;7.32;;;11.20;99.90;;;;;;5034213;28;20045;-87
2022/09/18 00:31:33;;;;;;;9.98;6.28;;;11.20;99.90;;;;;;4999794;28;20131;-88
2022/09/18 00:34:02;;;;;;;11.52;7.20;;;11.20;99.90;;;;;;5019409;28;20435;-88
2022/09/18 00:36:29;;;;;;;12.38;7.57;;;11.20;99.90;;;;;;5003801;28;20503;-88
2022/09/18 00:38:56;;;;;;;11.90;6.82;;;11.10;99.90;;;;;;5016552;28;20121;-89
2022/09/18 00:41:23;;;;;;;12.47;7.50;;;11.10;99.90;;;;;;5017151;28;20026;-86
2022/09/18 00:44:28;;;;;;;10.48;8.43;;;11.10;99.90;;;;;;5031019;28;20327;-85
2022/09/18 00:47:16;;;;;;;16.70;7.85;;;11.10;99.90;;;;;;5013434;28;20045;-85
2022/09/18 00:49:51;;;;;;;12.15;7.28;;;11.00;99.90;;;;;;5031807;28;20025;-88
2022/09/18 00:52:20;;;;;;;18.25;8.27;;;11.00;99.90;;;;;;5029781;28;20026;-86
2022/09/18 00:54:55;;;;;;;8.82;6.55;;;11.00;99.90;;;;;;5024366;28;20018;-85
2022/09/18 00:57:29;;;;;;;9.75;7.35;;;10.90;99.90;;;;;;5025409;28;20014;-85
2022/09/18 00:59:55;;;;;;;10.18;6.68;;;10.90;99.90;;;;;;5016534;28;20038;-84
2022/09/18 01:02:21;;;;;;;10.35;7.00;;;10.80;99.90;;;;;;5016537;28;20025;-85
2022/09/18 01:04:49;;;;;;;10.18;7.35;;;10.80;99.90;;;;;;5018997;28;20037;-85
2022/09/18 01:07:28;;;;;;;;;;;10.70;99.90;;;;;;5027294;28;20089;-86
2022/09/18 01:09:59;;;;;;;9.55;6.60;;;10.70;99.90;;;;;;5019536;28;19913;-84
2022/09/18 01:12:56;;;;;;;9.25;7.63;;;10.60;99.90;;;;;;5015989;28;20010;-87
2022/09/18 01:16:03;;;;;;;9.43;7.60;;;10.60;99.90;;;;;;4995122;28;20030;-85
2022/09/18 01:18:41;;;;;;;8.77;6.88;;;10.60;99.90;;;;;;4948893;28;20107;-88
2022/09/18 01:21:21;;;;;;;;;;;10.60;99.90;;;;;;5029151;28;20129;-85
2022/09/18 01:23:55;;;;;;;13.85;7.85;;;10.50;99.90;;;;;;5021265;28;19909;-83
2022/09/18 01:26:39;;;;;;;9.55;6.53;;;10.40;99.90;;;;;;5037938;28;20045;-85
2022/09/18 01:29:20;;;;;;;12.70;7.85;;;10.40;99.90;;;;;;5017970;28;20105;-86
2022/09/18 01:32:06;;;;;;;9.25;6.95;;;10.30;99.90;;;;;;5017742;28;20036;-86
2022/09/18 01:34:48;;;;;;;13.23;7.90;;;10.20;99.90;;;;;;4995477;28;20029;-85
2022/09/18 01:37:33;;;;;;;10.10;7.45;;;10.20;99.90;;;;;;5015611;28;20471;-86
2022/09/18 01:40:09;;;;;;;14.63;7.65;;;10.10;99.90;;;;;;5016033;28;20440;-86
2022/09/18 01:42:37;;;;;;;9.57;7.28;;;10.10;99.90;;;;;;4998078;28;20395;-87
2022/09/18 01:45:26;;;;;;;13.90;8.48;;;10.10;99.90;;;;;;5015508;28;20080;-87
2022/09/18 01:47:58;;;;;;;9.80;7.40;;;10.00;99.90;;;;;;5014812;28;20061;-86
2022/09/18 01:50:32;;;;;;;12.23;7.13;;;10.00;99.90;;;;;;5003203;28;20036;-87
2022/09/18 01:53:09;;;;;;;11.38;7.43;;;10.00;99.90;;;;;;5015882;28;20029;-86
2022/09/18 01:55:37;;;;;;;12.75;7.65;;;9.90;99.90;;;;;;5006766;28;20033;-84
2022/09/18 01:58:10;;;;;;;13.23;8.25;;;9.90;99.90;;;;;;5018442;28;20085;-86
2022/09/18 02:00:41;;;;;;;14.65;8.90;;;9.90;99.90;;;;;;5015392;28;20029;-85
2022/09/18 02:03:13;;;;;;;13.43;9.20;;;9.90;99.90;;;;;;4997482;28;20403;-85
2022/09/18 02:05:41;;;;;;;15.40;9.57;;;9.90;99.90;;;;;;5013925;28;20025;-85
2022/09/18 02:08:28;;;;;;;12.25;8.40;;;9.90;99.90;;;;;;5015504;28;20095;-85
2022/09/18 02:10:56;;;;;;;;;;;9.80;99.90;;;;;;5013893;28;20130;-85
2022/09/18 02:13:29;;;;;;;13.90;8.32;;;9.80;99.90;;;;;;5027728;28;19963;-84
2022/09/18 02:16:01;;;;;;;10.18;7.75;;;9.80;99.90;;;;;;5002723;28;20048;-85
2022/09/18 02:18:33;;;;;;;10.88;8.82;;;9.80;99.90;;;;;;5014874;28;20046;-84
2022/09/18 02:21:01;;;;;;;13.18;8.63;;;9.80;99.90;;;;;;4983807;28;20029;-84
2022/09/18 02:23:28;;;;;;;13.52;9.68;;;9.70;99.90;;;;;;4997631;28;20026;-85
2022/09/18 02:25:56;;;;;;;;;;;9.70;99.90;;;;;;5022783;28;20022;-83
2022/09/18 02:28:24;;;;;;;12.35;8.55;;;9.70;99.90;;;;;;5012626;28;19924;-84
2022/09/18 02:30:49;;;;;;;9.85;8.38;;;9.70;99.90;;;;;;5025304;28;20496;-84
2022/09/18 02:33:30;;;;;;;16.42;8.93;;;9.70;99.90;;;;;;5006862;28;20029;-83
2022/09/18 02:36:27;;;;;;;14.77;9.07;;;9.70;99.90;;;;;;5014373;28;20475;-84
2022/09/18 02:39:03;;;;;;;13.82;9.25;;;9.70;99.90;;;;;;5013977;28;20565;-84
2022/09/18 02:41:28;;;;;;;19.33;10.07;;;9.70;99.90;;;;;;5014242;28;20038;-83
2022/09/18 02:44:20;;;;;;;14.20;9.57;;;9.60;99.90;;;;;;4996015;28;20553;-82
2022/09/18 02:46:59;;;;;;;11.48;8.75;;;9.70;99.90;;;;;;4973579;28;20129;-84
2022/09/18 02:49:34;;;;;;;14.25;9.77;;;9.60;99.90;;;;;;5013494;28;20052;-84
2022/09/18 02:52:07;;;;;;;13.43;9.88;;;9.60;99.90;;;;;;5013781;28;20014;-84
2022/09/18 02:54:51;;;;;;;17.95;11.20;;;9.50;99.90;;;;;;4995301;28;20648;-84
2022/09/18 02:57:29;;;;;;;13.57;10.30;;;9.60;99.90;;;;;;4996440;28;20422;-84
2022/09/18 02:59:59;;;;;;;19.40;9.63;;;9.60;99.90;;;;;;5013962;28;20022;-83
2022/09/18 03:02:26;;;;;;;12.73;10.18;;;9.50;99.90;;;;;;5013861;28;20072;-83
2022/09/18 03:04:51;;;;;;;14.63;11.85;;;9.50;99.90;;;;;;5014178;28;20025;-84
2022/09/18 03:07:18;;;;;;;15.35;11.70;;;9.50;99.90;;;;;;5018733;28;20049;-84
2022/09/18 03:09:44;;;;;;;15.73;10.63;;;9.50;99.90;;;;;;5021330;28;20029;-84
2022/09/18 03:12:10;;;;;;;15.85;10.75;;;9.50;99.90;;;;;;5018781;28;20029;-85
2022/09/18 03:14:36;;;;;;;17.52;12.32;;;9.50;99.90;;;;;;5013356;28;20112;-84
2022/09/18 03:17:02;;;;;;;17.77;10.95;;;9.50;99.90;;;;;;5002882;28;20531;-84
2022/09/18 03:19:28;;;;;;;15.98;11.07;;;9.40;99.90;;;;;;5019724;28;20092;-84
2022/09/18 03:21:54;;;;;;;13.38;11.38;;;9.40;99.90;;;;;;5013570;28;20025;-84
2022/09/18 03:24:20;;;;;;;18.80;13.40;;;9.50;99.90;;;;;;5013846;28;20022;-84
2022/09/18 03:26:46;;;;;;;17.30;10.80;;;9.50;99.90;;;;;;5014517;28;20049;-85
2022/09/18 03:29:13;;;;;;;17.08;11.50;;;9.50;99.90;;;;;;4988393;28;20092;-85
2022/09/18 03:31:39;;;;;;;21.13;12.27;;;9.50;99.90;;;;;;5013504;28;20075;-86
2022/09/18 03:34:06;;;;;;;17.00;11.88;;;9.50;99.90;;;;;;5013271;28;20014;-85
2022/09/18 03:36:32;;;;;;;14.23;12.43;;;9.50;99.90;;;;;;5013017;28;20026;-85
2022/09/18 03:38:58;;;;;;;14.60;11.02;;;9.50;99.90;;;;;;5013025;28;20018;-85
2022/09/18 03:41:24;;;;;;;18.10;13.20;;;9.60;99.90;;;;;;4995823;28;20033;-85
2022/09/18 03:43:50;;;;;;;14.15;12.63;;;9.60;99.90;;;;;;5015020;28;20018;-86
2022/09/18 03:46:21;;;;;;;15.30;11.98;;;9.70;99.90;;;;;;5013506;28;20039;-87
2022/09/18 03:48:47;;;;;;;16.40;12.18;;;9.70;99.90;;;;;;5013573;28;20038;-85
2022/09/18 03:51:13;;;;;;;25.60;11.82;;;9.80;99.90;;;;;;5013139;28;20026;-86
2022/09/18 03:53:39;;;;;;;13.63;11.05;;;9.80;99.90;;;;;;5013732;28;20026;-85
2022/09/18 03:56:05;;;;;;;17.25;13.02;;;9.90;99.90;;;;;;5017076;28;20431;-84
2022/09/18 03:58:31;;;;;;;18.38;11.85;;;9.90;99.90;;;;;;5021884;28;20026;-85
2022/09/18 04:00:57;;;;;;;17.45;12.05;;;10.00;99.90;;;;;;5033929;28;20032;-84
2022/09/18 04:03:23;;;;;;;17.15;11.68;;;10.00;99.90;;;;;;5018951;28;20022;-83
2022/09/18 04:05:49;;;;;;;16.10;12.05;;;10.00;99.90;;;;;;5014704;28;20026;-82
2022/09/18 04:08:17;;;;;;;16.67;11.10;;;10.10;99.90;;;;;;5030914;28;20053;-84
2022/09/18 04:10:43;;;;;;;19.55;12.35;;;10.40;99.90;;;;;;5025501;28;20022;-86
2022/09/18 04:13:09;;;;;;;15.32;10.82;;;10.70;99.90;;;;;;5029776;28;20022;-83
2022/09/18 04:15:35;;;;;;;18.65;10.98;;;11.00;99.90;;;;;;5035450;28;20030;-84
2022/09/18 04:18:01;;;;;;;14.70;11.00;;;11.30;99.90;;;;;;5033328;28;20489;-84
2022/09/18 04:20:27;;;;;;;19.25;10.73;;;11.70;99.90;;;;;;5006168;28;20053;-83
2022/09/18 04:22:53;;;;;;;16.40;11.73;;;12.00;99.90;;;;;;5013628;28;20481;-84
2022/09/18 04:25:19;;;;;;;15.18;11.50;;;12.00;99.90;;;;;;5013634;28;20022;-86
2022/09/18 04:27:45;;;;;;;21.83;11.65;;;11.80;99.90;;;;;;5013862;28;20168;-88
2022/09/18 04:30:11;;;;;;;15.20;12.13;;;11.40;99.90;;;;;;5017868;28;20053;-87
2022/09/18 04:32:37;;;;;;;19.52;12.35;;;11.10;99.90;;;;;;5001145;28;20021;-90
2022/09/18 04:35:04;;;;;;;18.13;12.93;;;10.90;99.90;;;;;;5017897;28;20057;-88
2022/09/18 04:37:30;;;;;;;16.98;11.18;;;10.80;99.90;;;;;;5017026;28;20081;-89
2022/09/18 04:39:56;;;;;;;18.23;12.25;;;10.70;99.90;;;;;;5000613;28;20065;-88
2022/09/18 04:42:22;;;;;;;20.17;12.52;;;10.70;99.90;;;;;;5020701;28;20032;-87
2022/09/18 04:44:48;;;;;;;18.33;13.18;;;10.70;99.90;;;;;;5017074;28;20009;-88
2022/09/18 04:47:14;;;;;;;18.83;12.98;;;10.80;99.90;;;;;;5020643;28;20065;-86
2022/09/18 04:49:41;;;;;;;15.23;11.23;;;10.90;99.90;;;;;;5000406;28;20025;-88
2022/09/18 04:52:07;;;;;;;19.52;12.18;;;11.00;99.90;;;;;;5016210;28;20075;-86
2022/09/18 04:54:33;;;;;;;17.88;13.07;;;11.30;99.90;;;;;;5015074;28;20479;-85
2022/09/18 04:56:59;;;;;;;16.02;11.75;;;11.30;99.90;;;;;;5016401;28;20462;-86
2022/09/18 04:59:25;;;;;;;18.25;12.68;;;11.40;99.90;;;;;;4998607;28;20029;-87
2022/09/18 05:01:51;;;;;;;16.02;11.98;;;11.40;99.90;;;;;;5016443;28;20022;-86
2022/09/18 05:04:16;;;;;;;14.73;11.98;;;11.30;99.90;;;;;;5015192;28;20129;-87
2022/09/18 05:06:42;;;;;;;18.48;13.02;;;11.30;99.90;;;;;;5017854;28;20081;-86
2022/09/18 05:09:08;;;;;;;19.30;14.10;;;11.20;99.90;;;;;;5001314;28;20036;-85
2022/09/18 05:11:34;;;;;;;14.00;11.40;;;11.30;99.90;;;;;;5021051;28;20053;-87
2022/09/18 05:14:00;;;;;;;19.75;13.60;;;11.20;99.90;;;;;;5021591;28;20026;-85
2022/09/18 05:16:25;;;;;;;16.98;12.55;;;11.10;99.90;;;;;;5028332;28;20121;-85
2022/09/18 05:18:52;;;;;;;26.13;13.75;;;11.10;99.90;;;;;;5026916;28;20050;-86
2022/09/18 05:21:18;;;;;;;15.95;14.05;;;11.20;99.90;;;;;;5010542;28;20502;-86
2022/09/18 05:23:45;;;;;;;24.33;15.13;;;11.30;99.90;;;;;;5021998;28;20048;-86
2022/09/18 05:26:12;;;;;;;15.93;13.68;;;11.40;99.90;;;;;;5000002;28;20026;-85
2022/09/18 05:28:38;;;;;;;24.40;16.25;;;11.40;99.90;;;;;;5016994;28;20088;-87
2022/09/18 05:31:04;;;;;;;18.52;14.80;;;11.50;99.90;;;;;;5003587;28;20045;-87
2022/09/18 05:33:30;;;;;;;26.23;18.30;;;11.50;99.90;;;;;;5032454;28;20037;-87
2022/09/18 05:35:57;;;;;;;20.83;14.70;;;11.60;99.90;;;;;;5014348;28;20026;-88
2022/09/18 05:38:25;;;;;;;23.85;17.55;;;11.60;99.90;;;;;;5019094;28;20062;-87
2022/09/18 05:40:50;;;;;;;25.13;16.67;;;11.50;99.90;;;;;;5016832;28;20033;-88
2022/09/18 05:43:17;;;;;;;22.25;16.13;;;11.50;99.90;;;;;;5015543;28;20034;-87
2022/09/18 05:45:43;;;;;;;20.35;16.92;;;11.50;99.90;;;;;;4999776;28;20406;-87
2022/09/18 05:48:11;;;;;;;20.15;14.77;;;11.60;99.90;;;;;;5001377;28;20395;-87
2022/09/18 05:50:37;;;;;;;18.52;15.07;;;11.70;99.90;;;;;;5019912;28;20022;-88
2022/09/18 05:53:21;;;;;;;17.33;14.02;;;11.90;99.90;;;;;;5025369;28;20452;-87
2022/09/18 05:55:47;;;;;;;19.73;13.65;;;12.10;99.90;;;;;;5025365;28;20033;-86
2022/09/18 05:58:15;;;;;;;21.35;15.50;;;12.20;99.90;;;;;;5032827;28;20013;-86
2022/09/18 06:00:43;;;;;;;17.65;13.35;;;12.20;99.90;;;;;;5015704;28;20022;-87
2022/09/18 06:03:10;;;;;;;;;;;12.20;99.90;;;;;;5012949;28;20090;-87
2022/09/18 06:05:37;;;;;;;18.90;12.85;;;12.10;99.90;;;;;;5019739;28;19909;-88
2022/09/18 06:08:08;;;;;;;19.80;13.30;;;12.00;99.90;;;;;;5031147;28;20050;-87
2022/09/18 06:10:36;;;;;;;19.42;13.73;;;12.00;99.90;;;;;;5024729;28;20379;-86
2022/09/18 06:13:12;;;;;;;21.83;14.18;;;12.10;99.90;;;;;;5026730;28;20033;-88
2022/09/18 06:15:38;;;;;;;23.40;13.65;;;12.30;99.90;;;;;;5007161;28;20050;-88
2022/09/18 06:18:07;;;;;;;23.58;15.00;;;12.60;99.90;;;;;;5010751;28;20030;-85
2022/09/18 06:20:33;;;;;;;20.15;14.10;;;12.90;99.90;;;;;;5001649;28;20029;-88
2022/09/18 06:23:00;;;;;;;20.42;15.20;;;13.30;99.90;;;;;;5015431;28;20018;-86
2022/09/18 06:25:29;;;;;;;20.48;14.98;;;13.60;99.90;;;;;;5030446;28;20026;-86
2022/09/18 06:27:59;;;;;;;26.80;16.30;;;13.80;99.90;;;;;;5028028;28;20041;-86
2022/09/18 06:30:27;;;;;;;20.08;13.93;;;13.80;99.60;;;;;;5033931;28;20041;-87
2022/09/18 06:32:53;;;;;;;18.67;13.63;;;13.90;99.40;;;;;;5028078;28;20064;-87
2022/09/18 06:35:19;;;;;;;19.88;12.95;;;14.00;99.10;;;;;;5014462;28;20030;-88
2022/09/18 06:37:45;;;;;;;25.07;15.43;;;14.10;98.50;;;;;;5033065;28;20069;-85
2022/09/18 06:40:11;;;;;;;19.77;13.10;;;14.30;98.20;;;;;;5031875;28;20105;-89
2022/09/18 06:42:37;;;;;;;18.17;12.88;;;14.50;97.70;;;;;;5021668;28;20025;-89
2022/09/18 06:45:03;;;;;;;16.40;13.15;;;14.60;97.10;;;;;;5023687;28;20018;-89
2022/09/18 06:47:29;;;;;;;21.65;12.60;;;14.90;96.80;;;;;;5026521;28;20033;-89
2022/09/18 06:49:55;;;;;;;17.08;13.65;;;15.10;96.10;;;;;;5032668;28;20006;-87
2022/09/18 06:52:21;;;;;;;15.88;12.25;;;;;;;;;;5035932;28;20037;-86
2022/09/18 06:54:47;;;;;;;15.50;11.63;;;15.50;94.40;;;;;;5036962;28;20069;-88
2022/09/18 06:57:13;;;;;;;21.23;11.93;;;15.70;93.90;;;;;;5011309;28;20037;-87
2022/09/18 06:59:39;;;;;;;15.48;11.68;;;16.00;93.30;;;;;;5023472;28;20025;-85
2022/09/18 07:02:10;;;;;;;12.70;10.93;;;16.10;92.60;;;;;;5030634;28;20031;-87
2022/09/18 07:04:37;;;;;;;18.23;12.32;;;16.40;91.90;;;;;;5023842;28;20033;-87
2022/09/18 07:07:03;;;;;;;20.58;10.57;;;16.60;91.30;;;;;;5007861;28;20030;-88
2022/09/18 07:09:29;;;;;;;17.23;10.38;;;17.00;91.50;;;;;;5016950;28;20030;-91
2022/09/18 07:11:57;;;;;;;15.20;9.75;;;18.40;90.30;;;;;;5020607;28;20031;-95
2022/09/18 07:14:23;;;;;;;12.07;9.35;;;20.30;82.90;;;;;;4955449;29;20392;-93
2022/09/18 07:16:50;;;;;;;16.17;11.10;;;21.60;72.70;;;;;;4949056;29;20619;-91
2022/09/18 07:19:17;;;;;;;19.42;11.52;;;22.50;68.70;;;;;;4951280;29;20070;-93
2022/09/18 07:21:43;;;;;;;19.52;10.73;;;23.20;65.60;;;;;;4955482;29;20068;-94
2022/09/18 07:24:10;;;;;;;15.57;10.60;;;24.40;62.40;;;;;;4952376;29;20024;-93
2022/09/18 07:26:36;;;;;;;17.98;8.52;;;25.80;58.60;;;;;;4963361;29;20024;-93
2022/09/18 07:29:04;;;;;;;13.33;8.00;;;27.60;57.60;;;;;;4964770;28;20035;-93
2022/09/18 07:31:30;;;;;;;12.45;8.45;;;27.60;51.40;;;;;;4952980;29;20401;-90
2022/09/18 07:33:56;;;;;;;16.52;9.30;;;27.80;50.10;;;;;;4948134;29;20062;-91
2022/09/18 07:36:22;;;;;;;11.15;8.55;;;27.40;49.40;;;;;;4938115;29;20028;-91
2022/09/18 07:38:51;;;;;;;15.20;9.38;;;26.70;50.30;;;;;;4947582;28;20034;-92
2022/09/18 07:41:18;;;;;;;9.63;7.03;;;25.80;50.90;;;;;;4948889;29;20023;-91
2022/09/18 07:43:55;;;;;;;10.18;7.78;;;25.00;52.30;;;;;;4963358;29;20031;-95
2022/09/18 07:46:21;;;;;;;14.23;9.20;;;24.00;54.20;;;;;;5000846;28;20033;-90
2022/09/18 07:48:47;;;;;;;15.77;8.90;;;23.30;56.30;;;;;;5009141;28;20287;-92
2022/09/18 07:51:13;;;;;;;14.63;8.05;;;22.90;57.60;;;;;;5025630;28;20010;-91
2022/09/18 07:53:40;;;;;;;11.15;8.07;;;23.10;57.90;;;;;;5013030;28;20026;-87
2022/09/18 07:56:10;;;;;;;9.97;8.03;;;23.90;57.30;;;;;;5025404;28;20042;-87
2022/09/18 07:58:39;;;;;;;18.60;9.00;;;24.50;54.40;;;;;;5026674;28;20033;-90
2022/09/18 08:01:09;;;;;;;9.88;8.35;;;25.20;54.20;;;;;;5001926;28;20048;-92
2022/09/18 08:03:37;;;;;;;12.32;8.57;;;26.30;52.10;;;;;;5010782;28;20022;-93
2022/09/18 08:06:06;;;;;;;9.40;7.53;;;26.60;50.70;;;;;;5027354;28;20456;-90
2022/09/18 08:08:35;;;;;;;14.15;8.85;;;26.10;50.40;;;;;;5006977;28;20033;-91
2022/09/18 08:11:02;;;;;;;12.45;7.78;;;25.50;51.60;;;;;;5006077;28;20029;-91
2022/09/18 08:13:28;;;;;;;9.88;7.28;;;25.10;52.20;;;;;;5013687;28;20098;-91
2022/09/18 08:15:57;;;;;;;12.50;9.63;;;25.20;52.80;;;;;;5017833;28;20032;-89
2022/09/18 08:18:23;;;;;;;16.05;9.38;;;25.30;52.50;;;;;;5036920;28;20487;-88
2022/09/18 08:20:49;;;;;;;11.35;8.27;;;26.10;52.10;;;;;;5006447;28;20042;-87
2022/09/18 08:23:15;;;;;;;9.60;7.28;;;27.20;49.90;;;;;;4985840;28;20030;-85
2022/09/18 08:25:41;;;;;;;11.50;7.75;;;27.30;48.50;;;;;;5002575;28;20096;-85
2022/09/18 08:28:07;;;;;;;12.55;7.53;;;27.10;48.50;;;;;;5023051;28;20034;-82
2022/09/18 08:30:34;;;;;;;9.75;6.85;;;27.10;48.50;;;;;;4998980;28;20455;-87
2022/09/18 08:33:04;;;;;;;9.95;6.82;;;26.70;48.60;;;;;;5011544;28;20041;-88
2022/09/18 08:35:30;;;;;;;8.77;6.47;;;26.40;49.60;;;;;;5007927;28;20029;-86
2022/09/18 08:37:57;;;;;;;10.70;6.43;;;26.00;49.40;;;;;;5007969;28;20026;-93
2022/09/18 08:40:47;;;;;;;9.73;7.80;;;24.90;51.50;;;;;;5013218;28;20033;-91
2022/09/18 08:43:28;;;;;;;14.35;8.10;;;24.60;53.00;;;;;;5019158;28;20028;-94
2022/09/18 08:46:15;;;;;;;10.80;8.35;;;24.50;53.00;;;;;;5027216;28;20018;-88
2022/09/18 08:48:53;;;;;;;13.20;8.85;;;23.90;53.70;;;;;;5028196;28;20065;-88
2022/09/18 08:51:30;;;;;;;10.57;8.43;;;23.20;55.10;;;;;;5006923;28;20022;-86
2022/09/18 08:54:15;;;;;;;11.38;9.13;;;22.60;56.50;;;;;;5001913;28;20038;-85
2022/09/18 08:56:41;;;;;;;18.92;10.43;;;22.10;58.00;;;;;;5018168;28;20022;-84
2022/09/18 08:59:20;;;;;;;14.40;9.98;;;21.50;59.50;;;;;;5018061;28;20106;-85
2022/09/18 09:02:02;;;;;;;20.55;10.13;;;21.10;60.50;;;;;;5020991;28;20029;-84
2022/09/18 09:04:28;;;;;;;15.02;11.32;;;20.90;61.40;;;;;;5019912;28;20050;-84
2022/09/18 09:07:08;;;;;;;17.00;10.15;;;20.70;62.00;;;;;;5001052;28;20394;-85
2022/09/18 09:10:15;;;;;;;17.63;11.38;;;20.60;62.60;;;;;;4999926;28;20053;-86
2022/09/18 09:13:12;;;;;;;16.48;10.10;;;20.50;63.40;;;;;;4992155;28;20038;-85
2022/09/18 09:15:56;;;;;;;20.00;11.00;;;20.60;63.60;;;;;;5009993;28;20018;-86
2022/09/18 09:18:38;;;;;;;19.60;12.60;;;20.50;63.50;;;;;;5026953;28;20034;-85
2022/09/18 09:21:47;;;;;;;14.15;11.20;;;20.40;63.80;;;;;;5026883;28;20427;-85
2022/09/18 09:24:34;;;;;;;18.77;11.05;;;20.30;64.50;;;;;;5020536;28;20028;-86
2022/09/18 09:27:16;;;;;;;21.10;10.48;;;20.20;64.30;;;;;;5005570;28;20119;-84
2022/09/18 09:30:04;;;;;;;16.48;11.60;;;20.10;64.70;;;;;;5018784;28;20101;-83
2022/09/18 09:32:39;;;;;;;29.42;12.95;;;20.00;64.80;;;;;;5039426;28;20049;-81
2022/09/18 09:35:40;;;;;;;19.80;13.93;;;19.80;65.70;;;;;;5025986;28;20498;-84
2022/09/18 09:38:36;;;;;;;17.88;12.07;;;18.90;67.40;;;;;;5014827;28;20030;-81
2022/09/18 09:41:28;;;;;;;17.13;11.88;;;18.80;68.90;;;;;;5017047;28;20110;-81
2022/09/18 09:44:02;;;;;;;17.88;11.75;;;18.20;70.70;;;;;;5019408;28;20049;-82
2022/09/18 09:46:49;;;;;;;16.42;12.07;;;17.70;72.80;;;;;;5009757;28;20102;-80
2022/09/18 09:49:25;;;;;;;14.85;11.25;;;17.40;74.30;;;;;;5005294;28;20038;-83
2022/09/18 09:52:18;;;;;;;18.92;11.57;;;17.10;76.20;;;;;;5005633;28;20026;-81
2022/09/18 09:54:44;;;;;;;12.07;9.85;;;16.90;76.90;;;;;;5008806;28;20033;-83
2022/09/18 09:57:53;;;;;;;13.60;9.82;;;16.70;78.10;;;;;;5016373;28;20045;-81
2022/09/18 10:00:20;;;;;;;12.57;10.07;;;16.50;78.70;;;;;;5007623;28;20422;-84
2022/09/18 10:03:24;;;;;;;12.45;10.55;;;16.40;79.40;;;;;;5025282;28;20021;-83
2022/09/18 10:06:31;;;;;;;12.05;9.20;;;16.30;80.00;;;;;;5015365;28;20026;-84
2022/09/18 10:09:16;;;;;;;17.30;9.40;;;16.30;80.60;;;;;;5013666;28;20069;-83
2022/09/18 10:11:50;;;;;;;15.93;10.02;;;16.40;80.80;;;;;;5022905;28;20057;-84
2022/09/18 10:14:24;;;;;;;13.38;10.45;;;16.20;81.30;;;;;;5025607;28;20058;-85
2022/09/18 10:16:53;;;;;;;14.30;9.48;;;16.00;82.10;;;;;;5035959;28;20356;-83
2022/09/18 10:19:22;;;;;;;17.58;10.65;;;16.00;82.60;;;;;;5025188;28;20026;-87
2022/09/18 10:21:52;;;;;;;14.45;10.07;;;15.90;83.40;;;;;;5009353;28;20023;-86
2022/09/18 10:24:23;;;;;;;14.80;11.00;;;15.90;83.80;;;;;;5007361;28;20089;-85
2022/09/18 10:26:58;;;;;;;11.75;10.00;;;15.90;84.30;;;;;;5019604;28;20026;-85
2022/09/18 10:29:24;;;;;;;14.02;10.55;;;15.90;84.60;;;;;;5004029;28;20038;-84
2022/09/18 10:31:55;;;;;;;15.13;11.25;;;15.90;84.50;;;;;;5019888;28;20028;-85
2022/09/18 10:34:44;;;;;;;17.15;10.85;;;16.00;84.90;;;;;;5023010;28;20026;-83
2022/09/18 10:37:39;;;;;;;15.50;11.63;;;16.10;84.80;;;;;;5004898;28;20037;-85
2022/09/18 10:40:36;;;;;;;13.25;11.48;;;16.20;84.20;;;;;;5018044;28;20026;-83
2022/09/18 10:43:06;;;;;;;15.35;12.05;;;16.10;84.40;;;;;;5021193;28;20049;-85
2022/09/18 10:45:40;;;;;;;17.48;12.82;;;16.00;84.90;;;;;;5004783;28;20060;-88
2022/09/18 10:48:13;;;;;;;22.83;13.32;;;15.90;85.40;;;;;;5021997;28;20034;-86
2022/09/18 10:50:58;;;;;;;16.60;12.82;;;15.90;85.80;;;;;;5004221;28;20029;-84
2022/09/18 10:53:31;;;;;;;14.88;12.40;;;15.90;85.90;;;;;;5005801;28;20395;-85
2022/09/18 10:56:13;;;;;;;13.90;12.13;;;15.80;86.60;;;;;;5024474;28;20055;-83
2022/09/18 10:58:39;;;;;;;13.55;11.90;;;15.80;87.20;;;;;;5029858;28;20034;-84
2022/09/18 11:01:07;;;;;;;15.13;10.65;;;15.70;87.70;;;;;;5003843;28;20018;-85
2022/09/18 11:03:45;;;;;;;18.65;10.50;;;15.70;87.70;;;;;;5004148;28;20038;-84
2022/09/18 11:06:16;;;;;;;13.68;10.10;;;15.60;88.60;;;;;;5002651;28;20026;-80
2022/09/18 11:08:46;;;;;;;14.60;9.75;;;15.50;89.00;;;;;;5022091;28;20022;-82
2022/09/18 11:11:25;;;;;;;14.02;10.20;;;15.50;89.70;;;;;;5004026;28;20030;-83
2022/09/18 11:13:54;;;;;;;10.25;8.93;;;15.40;89.90;;;;;;5011853;28;20021;-84
2022/09/18 11:16:27;;;;;;;13.07;9.45;;;15.40;90.10;;;;;;5020303;28;20042;-82
2022/09/18 11:19:14;;;;;;;15.32;9.73;;;15.30;90.20;;;;;;5019744;28;20088;-81
2022/09/18 11:21:49;;;;;;;12.10;8.77;;;15.30;90.40;;;;;;5006028;28;20487;-81
2022/09/18 11:24:35;;;;;;;9.68;7.60;;;15.20;90.70;;;;;;5019953;28;20032;-84
2022/09/18 11:27:17;;;;;;;10.80;7.53;;;15.10;91.00;;;;;;5004780;28;20026;-85
2022/09/18 11:29:43;;;;;;;13.75;9.57;;;14.80;92.00;;;;;;5011981;28;20060;-81
2022/09/18 11:32:25;;;;;;;13.30;10.60;;;14.60;93.00;;;;;;5029038;28;20042;-83
2022/09/18 11:35:01;;;;;;;15.57;10.80;;;14.40;94.20;;;;;;5011661;28;20018;-84
2022/09/18 11:37:33;;;;;;;12.18;10.27;;;14.20;95.10;;;;;;5002883;28;20030;-84
2022/09/18 11:40:06;;;;;;;18.52;13.00;;;14.10;96.20;;;;;;5022010;28;20022;-84
2022/09/18 11:42:32;;;;;;;13.57;11.23;;;14.10;96.60;;;;;;5003030;28;20029;-86
2022/09/18 11:45:33;;;;;;;14.93;12.02;;;14.10;97.00;;;;;;5003464;28;20065;-89
2022/09/18 11:48:14;;;;;;;22.20;13.50;;;14.10;97.20;;;;;;5006308;28;20037;-83
2022/09/18 11:50:41;;;;;;;20.30;11.75;;;14.10;97.70;;;;;;5031239;28;20052;-84
2022/09/18 11:53:23;;;;;;;16.60;13.35;;;14.10;98.10;;;;;;5028318;28;20021;-83
2022/09/18 11:56:15;;;;;;;18.85;12.68;;;14.10;98.50;;;;;;5008569;28;20036;-83
2022/09/18 11:59:15;;;;;;;20.75;14.68;;;14.10;98.70;;;;;;4998820;28;20068;-83
2022/09/18 12:01:47;;;;;;;15.32;12.40;;;14.10;99.10;;;;;;4981442;28;20027;-84
2022/09/18 12:04:42;;;;;;;14.73;13.02;;;14.20;99.40;;;;;;5014616;28;20411;-84
2022/09/18 12:07:47;;;;;;;17.45;14.23;;;14.20;99.60;;;;;;5016755;28;20030;-84
2022/09/18 12:10:20;;;;;;;20.23;15.38;;;14.30;99.70;;;;;;5022528;28;20057;-83
2022/09/18 12:13:12;;;;;;;18.90;16.35;;;14.40;99.60;;;;;;5004717;28;20088;-83
2022/09/18 12:15:41;;;;;;;20.58;17.10;;;14.40;99.40;;;;;;4985093;28;20080;-82
2022/09/18 12:18:17;;;;;;;18.75;15.73;;;14.30;99.60;;;;;;5021871;28;20030;-82
2022/09/18 12:20:56;;;;;;;23.05;17.38;;;14.30;99.70;;;;;;5008514;28;20141;-85
2022/09/18 12:23:24;;;;;;;18.02;15.20;;;14.20;99.90;;;;;;5021917;28;20310;-81
2022/09/18 12:26:24;;;;;;;20.73;16.50;;;14.10;99.90;;;;;;5002424;28;20030;-82
2022/09/18 12:29:14;;;;;;;24.70;16.10;;;14.00;99.90;;;;;;5000024;28;20029;-82
2022/09/18 12:32:02;;;;;;;18.35;16.00;;;14.00;99.90;;;;;;5019057;28;20101;-82
2022/09/18 12:34:59;;;;;;;18.50;16.73;;;13.90;99.90;;;;;;5019111;28;20479;-81
2022/09/18 12:37:46;;;;;;;18.48;14.15;;;13.90;99.90;;;;;;5003931;28;20410;-81
2022/09/18 12:40:33;;;;;;;23.83;15.77;;;13.90;99.90;;;;;;5018235;28;20022;-79
2022/09/18 12:43:18;;;;;;;20.73;15.55;;;13.80;99.90;;;;;;5019001;28;20267;-80
2022/09/18 12:45:56;;;;;;;17.35;15.45;;;13.70;99.90;;;;;;5003371;28;20120;-80
2022/09/18 12:48:48;;;;;;;23.02;17.23;;;13.60;99.90;;;;;;5021191;28;20097;-81
2022/09/18 12:51:41;;;;;;;21.88;19.17;;;13.50;99.90;;;;;;5023498;28;20033;-87
2022/09/18 12:54:27;;;;;;;27.05;18.02;;;13.40;99.90;;;;;;5009076;28;20018;-85
2022/09/18 12:57:20;;;;;;;21.63;17.58;;;13.30;99.90;;;;;;5010294;28;20018;-84
2022/09/18 13:00:18;;;;;;;26.58;19.25;;;13.30;99.90;;;;;;5007981;28;20041;-87
2022/09/18 13:03:21;;;;;;;22.42;17.83;;;13.20;99.90;;;;;;5003226;28;20060;-86
2022/09/18 13:06:19;;;;;;;28.38;21.88;;;13.20;99.90;;;;;;5017698;28;20041;-85
2022/09/18 13:09:18;;;;;;;26.45;19.67;;;13.10;99.90;;;;;;4993504;28;20029;-88